sensor_id;sensor_type;location;lat;lon;timestamp;temperature;humidity
11446;DHT22;5779;64.178;15.432;2023-01-25T00:02:24;4.50;99.90
11446;DHT22;5779;64.178;15.432;2023-01-25T00:05:13;4.60;99.90
11446;DHT22;5779;64.178;15.432;2023-01-25T00:08:00;4.70;99.90
11446;DHT22;5779;64.178;15.432;2023-01-25T00:10:50;4.80;99.90
11446;DHT22;5779;64.178;15.432;2023-01-25T00:13:37;4.80;99.90
11446;DHT22;5779;64.178;15.432;2023-01-25T00:16:24;5.00;99.90
11446;DHT22;5779;64.178;15.432;2023-01-25T00:19:11;5.40;99.90
11446;DHT22;5779;64.178;15.432;2023-01-25T00:21:59;5.60;99.90
11446;DHT22;5779;64.178;15.432;2023-01-25T00:24:46;5.60;99.90
11446;DHT22;5779;64.178;15.432;2023-01-25T00:27:33;5.70;99.90
11446;DHT22;5779;64.178;15.432;2023-01-25T00:30:20;5.90;99.90
11446;DHT22;5779;64.178;15.432;2023-01-25T00:33:37;5.80;99.90
11446;DHT22;5779;64.178;15.432;2023-01-25T00:36:42;5.80;99.90
11446;DHT22;5779;64.178;15.432;2023-01-25T00:39:31;5.80;99.90
11446;DHT22;5779;64.178;15.432;2023-01-25T00:42:18;5.80;99.90
11446;DHT22;5779;64.178;15.432;2023-01-25T00:45:06;5.80;99.90
11446;DHT22;5779;64.178;15.432;2023-01-25T00:47:54;5.80;99.90
11446;DHT22;5779;64.178;15.432;2023-01-25T00:50:41;6.10;99.90
11446;DHT22;5779;64.178;15.432;2023-01-25T00:53:28;5.90;99.90
11446;DHT22;5779;64.178;15.432;2023-01-25T00:56:17;5.90;99.90
11446;DHT22;5779;64.178;15.432;2023-01-25T00:59:03;6.30;99.90
11446;DHT22;5779;64.178;15.432;2023-01-25T01:01:51;6.30;99.90
11446;DHT22;5779;64.178;15.432;2023-01-25T01:04:38;6.50;99.90
11446;DHT22;5779;64.178;15.432;2023-01-25T01:07:25;6.50;99.90
11446;DHT22;5779;64.178;15.432;2023-01-25T01:10:13;6.50;99.90
11446;DHT22;5779;64.178;15.432;2023-01-25T01:13:02;6.70;99.90
11446;DHT22;5779;64.178;15.432;2023-01-25T01:15:49;6.70;99.90
11446;DHT22;5779;64.178;15.432;2023-01-25T01:18:36;6.60;99.90
11446;DHT22;5779;64.178;15.432;2023-01-25T01:21:24;6.70;99.90
11446;DHT22;5779;64.178;15.432;2023-01-25T01:24:10;6.50;99.90
11446;DHT22;5779;64.178;15.432;2023-01-25T01:26:58;6.60;99.90
11446;DHT22;5779;64.178;15.432;2023-01-25T01:29:46;6.80;99.90
11446;DHT22;5779;64.178;15.432;2023-01-25T01:32:32;6.70;99.90
11446;DHT22;5779;64.178;15.432;2023-01-25T01:35:19;6.70;99.90
11446;DHT22;5779;64.178;15.432;2023-01-25T01:38:06;6.80;99.90
11446;DHT22;5779;64.178;15.432;2023-01-25T01:40:53;6.70;99.90
11446;DHT22;5779;64.178;15.432;2023-01-25T01:43:40;6.70;99.90
11446;DHT22;5779;64.178;15.432;2023-01-25T01:46:31;6.60;99.90
11446;DHT22;5779;64.178;15.432;2023-01-25T01:49:23;6.80;99.90
11446;DHT22;5779;64.178;15.432;2023-01-25T01:52:15;6.50;99.90
11446;DHT22;5779;64.178;15.432;2023-01-25T01:55:05;6.30;99.90
11446;DHT22;5779;64.178;15.432;2023-01-25T01:57:56;6.00;99.90
11446;DHT22;5779;64.178;15.432;2023-01-25T02:00:43;6.00;99.90
11446;DHT22;5779;64.178;15.432;2023-01-25T02:03:32;6.30;99.90
11446;DHT22;5779;64.178;15.432;2023-01-25T02:06:26;6.30;99.90
11446;DHT22;5779;64.178;15.432;2023-01-25T02:09:15;6.30;99.90
11446;DHT22;5779;64.178;15.432;2023-01-25T02:12:05;6.50;99.90
11446;DHT22;5779;64.178;15.432;2023-01-25T02:14:53;6.50;99.90
11446;DHT22;5779;64.178;15.432;2023-01-25T02:17:41;6.30;99.90
11446;DHT22;5779;64.178;15.432;2023-01-25T02:20:35;6.30;99.90
11446;DHT22;5779;64.178;15.432;2023-01-25T02:23:28;6.50;99.90
11446;DHT22;5779;64.178;15.432;2023-01-25T02:26:18;6.60;99.90
11446;DHT22;5779;64.178;15.432;2023-01-25T02:29:07;6.60;99.90
11446;DHT22;5779;64.178;15.432;2023-01-25T02:31:59;6.50;99.90
11446;DHT22;5779;64.178;15.432;2023-01-25T02:34:47;6.80;99.90
11446;DHT22;5779;64.178;15.432;2023-01-25T02:37:34;6.60;99.90
11446;DHT22;5779;64.178;15.432;2023-01-25T02:40:22;6.30;99.90
11446;DHT22;5779;64.178;15.432;2023-01-25T02:43:10;6.30;99.90
11446;DHT22;5779;64.178;15.432;2023-01-25T02:46:01;6.30;99.90
11446;DHT22;5779;64.178;15.432;2023-01-25T02:48:49;6.10;99.90
11446;DHT22;5779;64.178;15.432;2023-01-25T02:51:39;5.90;99.90
11446;DHT22;5779;64.178;15.432;2023-01-25T02:54:26;5.80;99.90
11446;DHT22;5779;64.178;15.432;2023-01-25T02:57:13;5.60;99.90
11446;DHT22;5779;64.178;15.432;2023-01-25T03:00:01;5.60;99.90
11446;DHT22;5779;64.178;15.432;2023-01-25T03:02:48;5.90;99.90
11446;DHT22;5779;64.178;15.432;2023-01-25T03:05:35;5.80;99.90
11446;DHT22;5779;64.178;15.432;2023-01-25T03:08:22;5.90;99.90
11446;DHT22;5779;64.178;15.432;2023-01-25T03:11:09;6.10;99.90
11446;DHT22;5779;64.178;15.432;2023-01-25T03:13:55;6.30;99.90
11446;DHT22;5779;64.178;15.432;2023-01-25T03:16:44;6.60;99.90
11446;DHT22;5779;64.178;15.432;2023-01-25T03:19:31;6.70;99.90
11446;DHT22;5779;64.178;15.432;2023-01-25T03:22:17;6.70;99.90
11446;DHT22;5779;64.178;15.432;2023-01-25T03:25:06;6.40;99.90
11446;DHT22;5779;64.178;15.432;2023-01-25T03:27:53;6.00;99.90
11446;DHT22;5779;64.178;15.432;2023-01-25T03:30:40;5.50;99.90
11446;DHT22;5779;64.178;15.432;2023-01-25T03:33:28;5.80;99.90
11446;DHT22;5779;64.178;15.432;2023-01-25T03:36:15;6.20;99.90
11446;DHT22;5779;64.178;15.432;2023-01-25T03:39:02;6.10;99.90
11446;DHT22;5779;64.178;15.432;2023-01-25T03:41:50;6.70;99.90
11446;DHT22;5779;64.178;15.432;2023-01-25T03:44:37;6.90;99.90
11446;DHT22;5779;64.178;15.432;2023-01-25T03:47:23;6.80;99.90
11446;DHT22;5779;64.178;15.432;2023-01-25T03:50:12;6.70;99.90
11446;DHT22;5779;64.178;15.432;2023-01-25T03:53:29;6.50;99.90
11446;DHT22;5779;64.178;15.432;2023-01-25T03:56:17;6.60;99.90
11446;DHT22;5779;64.178;15.432;2023-01-25T03:59:04;6.70;99.90
11446;DHT22;5779;64.178;15.432;2023-01-25T04:01:51;6.70;99.90
11446;DHT22;5779;64.178;15.432;2023-01-25T04:04:38;6.70;99.90
11446;DHT22;5779;64.178;15.432;2023-01-25T04:07:26;6.90;99.90
11446;DHT22;5779;64.178;15.432;2023-01-25T04:10:13;6.90;99.90
11446;DHT22;5779;64.178;15.432;2023-01-25T04:13:00;7.10;99.90
11446;DHT22;5779;64.178;15.432;2023-01-25T04:15:47;7.30;99.90
11446;DHT22;5779;64.178;15.432;2023-01-25T04:18:34;7.30;99.90
11446;DHT22;5779;64.178;15.432;2023-01-25T04:21:21;7.30;99.90
11446;DHT22;5779;64.178;15.432;2023-01-25T04:24:09;7.10;99.90
11446;DHT22;5779;64.178;15.432;2023-01-25T04:26:56;6.90;99.90
11446;DHT22;5779;64.178;15.432;2023-01-25T04:29:43;7.10;99.90
11446;DHT22;5779;64.178;15.432;2023-01-25T04:32:30;7.10;99.90
11446;DHT22;5779;64.178;15.432;2023-01-25T04:35:16;7.30;99.90
11446;DHT22;5779;64.178;15.432;2023-01-25T04:38:04;7.20;99.90
11446;DHT22;5779;64.178;15.432;2023-01-25T04:40:53;7.20;99.90
11446;DHT22;5779;64.178;15.432;2023-01-25T04:43:39;7.20;99.90
11446;DHT22;5779;64.178;15.432;2023-01-25T04:46:26;7.20;99.90
11446;DHT22;5779;64.178;15.432;2023-01-25T04:49:13;7.20;99.90
11446;DHT22;5779;64.178;15.432;2023-01-25T04:52:00;7.60;99.90
11446;DHT22;5779;64.178;15.432;2023-01-25T04:54:47;7.40;99.90
11446;DHT22;5779;64.178;15.432;2023-01-25T04:57:36;7.30;99.90
11446;DHT22;5779;64.178;15.432;2023-01-25T05:00:23;7.40;99.90
11446;DHT22;5779;64.178;15.432;2023-01-25T05:03:10;7.70;99.90
11446;DHT22;5779;64.178;15.432;2023-01-25T05:05:57;7.50;99.90
11446;DHT22;5779;64.178;15.432;2023-01-25T05:08:43;7.70;99.90
11446;DHT22;5779;64.178;15.432;2023-01-25T05:11:30;7.70;99.90
11446;DHT22;5779;64.178;15.432;2023-01-25T05:14:19;7.80;99.90
11446;DHT22;5779;64.178;15.432;2023-01-25T05:17:06;7.60;99.90
11446;DHT22;5779;64.178;15.432;2023-01-25T05:19:53;7.70;99.90
11446;DHT22;5779;64.178;15.432;2023-01-25T05:22:40;7.80;99.90
11446;DHT22;5779;64.178;15.432;2023-01-25T05:25:27;7.70;99.90
11446;DHT22;5779;64.178;15.432;2023-01-25T05:28:31;7.70;99.90
11446;DHT22;5779;64.178;15.432;2023-01-25T05:31:19;7.70;99.90
11446;DHT22;5779;64.178;15.432;2023-01-25T05:34:08;7.70;99.90
11446;DHT22;5779;64.178;15.432;2023-01-25T05:36:56;7.80;99.90
11446;DHT22;5779;64.178;15.432;2023-01-25T05:39:43;7.90;99.90
11446;DHT22;5779;64.178;15.432;2023-01-25T05:42:29;7.70;99.90
11446;DHT22;5779;64.178;15.432;2023-01-25T05:45:16;7.60;99.90
11446;DHT22;5779;64.178;15.432;2023-01-25T05:48:05;7.60;99.90
11446;DHT22;5779;64.178;15.432;2023-01-25T05:50:52;7.80;99.90
11446;DHT22;5779;64.178;15.432;2023-01-25T05:53:39;7.60;99.90
11446;DHT22;5779;64.178;15.432;2023-01-25T05:56:25;7.70;99.90
11446;DHT22;5779;64.178;15.432;2023-01-25T05:59:12;7.60;99.90
11446;DHT22;5779;64.178;15.432;2023-01-25T06:01:59;7.70;99.90
11446;DHT22;5779;64.178;15.432;2023-01-25T06:04:47;7.70;99.90
11446;DHT22;5779;64.178;15.432;2023-01-25T06:07:34;7.70;99.90
11446;DHT22;5779;64.178;15.432;2023-01-25T06:10:21;7.70;99.90
11446;DHT22;5779;64.178;15.432;2023-01-25T06:13:08;7.80;99.90
11446;DHT22;5779;64.178;15.432;2023-01-25T06:15:56;7.70;99.90
11446;DHT22;5779;64.178;15.432;2023-01-25T06:18:43;7.60;99.90
11446;DHT22;5779;64.178;15.432;2023-01-25T06:21:32;7.80;99.90
11446;DHT22;5779;64.178;15.432;2023-01-25T06:24:19;7.80;99.90
11446;DHT22;5779;64.178;15.432;2023-01-25T06:27:06;7.60;99.90
11446;DHT22;5779;64.178;15.432;2023-01-25T06:29:53;7.60;99.90
11446;DHT22;5779;64.178;15.432;2023-01-25T06:32:40;7.50;99.90
11446;DHT22;5779;64.178;15.432;2023-01-25T06:35:27;7.60;99.90
11446;DHT22;5779;64.178;15.432;2023-01-25T06:38:16;7.70;99.90
11446;DHT22;5779;64.178;15.432;2023-01-25T06:41:05;7.80;99.90
11446;DHT22;5779;64.178;15.432;2023-01-25T06:43:52;7.60;99.90
11446;DHT22;5779;64.178;15.432;2023-01-25T06:46:39;7.60;99.90
11446;DHT22;5779;64.178;15.432;2023-01-25T06:49:27;7.60;99.90
11446;DHT22;5779;64.178;15.432;2023-01-25T06:52:13;7.50;99.90
11446;DHT22;5779;64.178;15.432;2023-01-25T06:55:02;7.50;99.90
11446;DHT22;5779;64.178;15.432;2023-01-25T06:57:50;7.50;99.90
11446;DHT22;5779;64.178;15.432;2023-01-25T07:00:36;7.50;99.90
11446;DHT22;5779;64.178;15.432;2023-01-25T07:03:23;7.50;99.90
11446;DHT22;5779;64.178;15.432;2023-01-25T07:06:10;7.50;99.90
11446;DHT22;5779;64.178;15.432;2023-01-25T07:09:02;7.50;99.90
11446;DHT22;5779;64.178;15.432;2023-01-25T07:11:51;7.20;99.90
11446;DHT22;5779;64.178;15.432;2023-01-25T07:14:39;7.30;99.90
11446;DHT22;5779;64.178;15.432;2023-01-25T07:17:25;7.60;99.90
11446;DHT22;5779;64.178;15.432;2023-01-25T07:20:12;7.50;99.90
11446;DHT22;5779;64.178;15.432;2023-01-25T07:22:59;7.50;99.90
11446;DHT22;5779;64.178;15.432;2023-01-25T07:25:47;7.50;99.90
11446;DHT22;5779;64.178;15.432;2023-01-25T07:28:35;7.50;99.90
11446;DHT22;5779;64.178;15.432;2023-01-25T07:31:23;7.40;99.90
11446;DHT22;5779;64.178;15.432;2023-01-25T07:34:11;7.60;99.90
11446;DHT22;5779;64.178;15.432;2023-01-25T07:36:58;7.40;99.90
11446;DHT22;5779;64.178;15.432;2023-01-25T07:39:45;7.30;99.90
11446;DHT22;5779;64.178;15.432;2023-01-25T07:42:34;7.30;99.90
11446;DHT22;5779;64.178;15.432;2023-01-25T07:45:23;7.70;99.90
11446;DHT22;5779;64.178;15.432;2023-01-25T07:48:14;7.60;99.90
11446;DHT22;5779;64.178;15.432;2023-01-25T07:51:03;7.70;99.90
11446;DHT22;5779;64.178;15.432;2023-01-25T07:53:58;7.60;99.90
11446;DHT22;5779;64.178;15.432;2023-01-25T07:56:45;7.70;99.90
11446;DHT22;5779;64.178;15.432;2023-01-25T07:59:33;7.60;99.90
11446;DHT22;5779;64.178;15.432;2023-01-25T08:02:22;7.50;99.90
11446;DHT22;5779;64.178;15.432;2023-01-25T08:05:09;7.60;99.90
11446;DHT22;5779;64.178;15.432;2023-01-25T08:07:56;7.50;99.90
11446;DHT22;5779;64.178;15.432;2023-01-25T08:10:43;7.30;99.90
11446;DHT22;5779;64.178;15.432;2023-01-25T08:13:30;7.30;99.90
11446;DHT22;5779;64.178;15.432;2023-01-25T08:16:18;7.30;99.90
11446;DHT22;5779;64.178;15.432;2023-01-25T08:19:08;7.40;99.90
11446;DHT22;5779;64.178;15.432;2023-01-25T08:21:56;7.40;99.90
11446;DHT22;5779;64.178;15.432;2023-01-25T08:24:43;7.50;99.90
11446;DHT22;5779;64.178;15.432;2023-01-25T08:27:29;7.60;99.90
11446;DHT22;5779;64.178;15.432;2023-01-25T08:30:17;7.50;99.90
11446;DHT22;5779;64.178;15.432;2023-01-25T08:33:03;7.30;99.90
11446;DHT22;5779;64.178;15.432;2023-01-25T08:35:55;7.50;99.90
11446;DHT22;5779;64.178;15.432;2023-01-25T08:38:43;7.30;99.90
11446;DHT22;5779;64.178;15.432;2023-01-25T08:41:31;7.30;99.90
11446;DHT22;5779;64.178;15.432;2023-01-25T08:44:18;7.30;99.90
11446;DHT22;5779;64.178;15.432;2023-01-25T08:47:08;7.20;99.90
11446;DHT22;5779;64.178;15.432;2023-01-25T08:49:55;7.30;99.90
11446;DHT22;5779;64.178;15.432;2023-01-25T08:52:43;7.30;99.90
11446;DHT22;5779;64.178;15.432;2023-01-25T08:55:30;7.30;99.90
11446;DHT22;5779;64.178;15.432;2023-01-25T08:58:17;7.20;99.90
11446;DHT22;5779;64.178;15.432;2023-01-25T09:01:07;7.20;99.90
11446;DHT22;5779;64.178;15.432;2023-01-25T09:03:54;7.20;99.90
11446;DHT22;5779;64.178;15.432;2023-01-25T09:06:41;7.10;99.90
11446;DHT22;5779;64.178;15.432;2023-01-25T09:09:30;7.10;99.90
11446;DHT22;5779;64.178;15.432;2023-01-25T09:12:16;7.10;99.90
11446;DHT22;5779;64.178;15.432;2023-01-25T09:15:04;7.10;99.90
11446;DHT22;5779;64.178;15.432;2023-01-25T09:17:51;7.10;99.90
11446;DHT22;5779;64.178;15.432;2023-01-25T09:20:38;7.00;99.90
11446;DHT22;5779;64.178;15.432;2023-01-25T09:23:25;7.10;99.90
11446;DHT22;5779;64.178;15.432;2023-01-25T09:26:13;7.20;99.90
11446;DHT22;5779;64.178;15.432;2023-01-25T09:29:00;7.20;99.90
11446;DHT22;5779;64.178;15.432;2023-01-25T09:31:47;7.20;99.90
11446;DHT22;5779;64.178;15.432;2023-01-25T09:34:34;7.00;99.90
11446;DHT22;5779;64.178;15.432;2023-01-25T09:37:21;7.00;99.90
11446;DHT22;5779;64.178;15.432;2023-01-25T09:40:17;6.90;99.90
11446;DHT22;5779;64.178;15.432;2023-01-25T09:43:13;6.90;99.90
11446;DHT22;5779;64.178;15.432;2023-01-25T09:46:15;6.90;99.90
11446;DHT22;5779;64.178;15.432;2023-01-25T09:49:18;6.80;99.90
11446;DHT22;5779;64.178;15.432;2023-01-25T09:52:23;6.80;99.90
11446;DHT22;5779;64.178;15.432;2023-01-25T09:55:19;6.80;99.90
11446;DHT22;5779;64.178;15.432;2023-01-25T09:58:13;6.90;99.90
11446;DHT22;5779;64.178;15.432;2023-01-25T10:01:11;6.70;99.90
11446;DHT22;5779;64.178;15.432;2023-01-25T10:04:03;6.70;99.90
11446;DHT22;5779;64.178;15.432;2023-01-25T10:06:53;6.70;99.90
11446;DHT22;5779;64.178;15.432;2023-01-25T10:09:48;6.60;99.90
11446;DHT22;5779;64.178;15.432;2023-01-25T10:12:37;6.50;99.90
11446;DHT22;5779;64.178;15.432;2023-01-25T10:15:29;6.50;99.90
11446;DHT22;5779;64.178;15.432;2023-01-25T10:18:23;6.40;99.90
11446;DHT22;5779;64.178;15.432;2023-01-25T10:21:19;6.30;99.90
11446;DHT22;5779;64.178;15.432;2023-01-25T10:24:27;6.30;99.90
11446;DHT22;5779;64.178;15.432;2023-01-25T10:27:25;6.20;99.90
11446;DHT22;5779;64.178;15.432;2023-01-25T10:30:22;6.00;99.90
11446;DHT22;5779;64.178;15.432;2023-01-25T10:33:13;6.00;99.90
11446;DHT22;5779;64.178;15.432;2023-01-25T10:36:02;5.90;99.90
11446;DHT22;5779;64.178;15.432;2023-01-25T10:38:50;6.00;99.90
11446;DHT22;5779;64.178;15.432;2023-01-25T10:41:47;5.80;99.90
11446;DHT22;5779;64.178;15.432;2023-01-25T10:44:35;5.80;99.90
11446;DHT22;5779;64.178;15.432;2023-01-25T10:47:23;5.90;99.90
11446;DHT22;5779;64.178;15.432;2023-01-25T10:50:42;5.60;99.90
11446;DHT22;5779;64.178;15.432;2023-01-25T10:53:32;5.70;99.90
11446;DHT22;5779;64.178;15.432;2023-01-25T10:56:23;5.70;99.90
11446;DHT22;5779;64.178;15.432;2023-01-25T10:59:17;5.70;99.90
11446;DHT22;5779;64.178;15.432;2023-01-25T11:02:38;5.60;99.90
11446;DHT22;5779;64.178;15.432;2023-01-25T11:05:29;5.50;99.90
11446;DHT22;5779;64.178;15.432;2023-01-25T11:08:22;5.60;99.90
11446;DHT22;5779;64.178;15.432;2023-01-25T11:11:24;5.60;99.90
11446;DHT22;5779;64.178;15.432;2023-01-25T11:14:15;5.50;99.90
11446;DHT22;5779;64.178;15.432;2023-01-25T11:17:04;5.50;99.90
11446;DHT22;5779;64.178;15.432;2023-01-25T11:20:16;5.50;99.90
11446;DHT22;5779;64.178;15.432;2023-01-25T11:23:21;5.40;99.90
11446;DHT22;5779;64.178;15.432;2023-01-25T11:26:13;5.40;99.90
11446;DHT22;5779;64.178;15.432;2023-01-25T11:29:11;5.40;99.90
11446;DHT22;5779;64.178;15.432;2023-01-25T11:31:58;5.50;99.90
11446;DHT22;5779;64.178;15.432;2023-01-25T11:34:45;5.50;99.90
11446;DHT22;5779;64.178;15.432;2023-01-25T11:37:40;5.60;99.90
11446;DHT22;5779;64.178;15.432;2023-01-25T11:40:38;5.50;99.90
11446;DHT22;5779;64.178;15.432;2023-01-25T11:43:43;5.60;99.90
11446;DHT22;5779;64.178;15.432;2023-01-25T11:46:40;5.70;99.90
11446;DHT22;5779;64.178;15.432;2023-01-25T11:49:41;5.60;99.90
11446;DHT22;5779;64.178;15.432;2023-01-25T11:52:37;5.50;99.90
11446;DHT22;5779;64.178;15.432;2023-01-25T11:55:38;5.50;99.90
11446;DHT22;5779;64.178;15.432;2023-01-25T11:58:40;5.40;99.90
11446;DHT22;5779;64.178;15.432;2023-01-25T12:01:36;5.30;99.90
11446;DHT22;5779;64.178;15.432;2023-01-25T12:04:56;5.40;99.90
11446;DHT22;5779;64.178;15.432;2023-01-25T12:07:50;5.40;99.90
11446;DHT22;5779;64.178;15.432;2023-01-25T12:10:46;5.50;99.90
11446;DHT22;5779;64.178;15.432;2023-01-25T12:13:43;5.40;99.90
11446;DHT22;5779;64.178;15.432;2023-01-25T12:16:47;5.50;99.90
11446;DHT22;5779;64.178;15.432;2023-01-25T12:19:51;5.60;99.90
11446;DHT22;5779;64.178;15.432;2023-01-25T12:22:55;5.70;99.90
11446;DHT22;5779;64.178;15.432;2023-01-25T12:26:01;5.70;99.90
11446;DHT22;5779;64.178;15.432;2023-01-25T12:28:53;5.40;99.90
11446;DHT22;5779;64.178;15.432;2023-01-25T12:31:47;5.30;99.90
11446;DHT22;5779;64.178;15.432;2023-01-25T12:34:38;5.20;99.90
11446;DHT22;5779;64.178;15.432;2023-01-25T12:37:31;5.00;99.90
11446;DHT22;5779;64.178;15.432;2023-01-25T12:40:22;5.00;99.90
11446;DHT22;5779;64.178;15.432;2023-01-25T12:43:15;4.90;99.90
11446;DHT22;5779;64.178;15.432;2023-01-25T12:46:10;4.80;99.90
11446;DHT22;5779;64.178;15.432;2023-01-25T12:49:03;4.70;99.90
11446;DHT22;5779;64.178;15.432;2023-01-25T12:51:53;4.60;99.90
11446;DHT22;5779;64.178;15.432;2023-01-25T12:54:43;4.60;99.90
11446;DHT22;5779;64.178;15.432;2023-01-25T12:57:36;4.70;99.90
11446;DHT22;5779;64.178;15.432;2023-01-25T13:00:32;4.60;99.90
11446;DHT22;5779;64.178;15.432;2023-01-25T13:03:28;4.70;99.90
11446;DHT22;5779;64.178;15.432;2023-01-25T13:06:21;4.90;99.90
11446;DHT22;5779;64.178;15.432;2023-01-25T13:09:15;5.00;99.90
11446;DHT22;5779;64.178;15.432;2023-01-25T13:12:08;5.00;99.90
11446;DHT22;5779;64.178;15.432;2023-01-25T13:14:56;5.00;99.90
11446;DHT22;5779;64.178;15.432;2023-01-25T13:17:44;5.00;99.90
11446;DHT22;5779;64.178;15.432;2023-01-25T13:20:48;4.90;99.90
11446;DHT22;5779;64.178;15.432;2023-01-25T13:23:36;4.90;99.90
11446;DHT22;5779;64.178;15.432;2023-01-25T13:29:43;4.90;99.90
11446;DHT22;5779;64.178;15.432;2023-01-25T13:33:03;5.00;99.90
11446;DHT22;5779;64.178;15.432;2023-01-25T13:35:51;4.90;99.90
11446;DHT22;5779;64.178;15.432;2023-01-25T13:38:38;4.90;99.90
11446;DHT22;5779;64.178;15.432;2023-01-25T13:41:25;4.90;99.90
11446;DHT22;5779;64.178;15.432;2023-01-25T13:44:22;4.90;99.90
11446;DHT22;5779;64.178;15.432;2023-01-25T13:47:14;4.80;99.90
11446;DHT22;5779;64.178;15.432;2023-01-25T13:50:12;4.70;99.90
11446;DHT22;5779;64.178;15.432;2023-01-25T13:53:05;4.70;99.90
11446;DHT22;5779;64.178;15.432;2023-01-25T13:56:02;4.70;99.90
11446;DHT22;5779;64.178;15.432;2023-01-25T13:58:49;4.70;99.90
11446;DHT22;5779;64.178;15.432;2023-01-25T14:01:36;4.60;99.90
11446;DHT22;5779;64.178;15.432;2023-01-25T14:04:23;4.60;99.90
11446;DHT22;5779;64.178;15.432;2023-01-25T14:07:16;4.60;99.90
11446;DHT22;5779;64.178;15.432;2023-01-25T14:10:08;4.60;99.90
11446;DHT22;5779;64.178;15.432;2023-01-25T14:12:58;4.50;99.90
11446;DHT22;5779;64.178;15.432;2023-01-25T14:15:54;4.40;99.90
11446;DHT22;5779;64.178;15.432;2023-01-25T14:18:41;4.50;99.90
11446;DHT22;5779;64.178;15.432;2023-01-25T14:21:29;4.40;99.90
11446;DHT22;5779;64.178;15.432;2023-01-25T14:24:17;4.40;99.90
11446;DHT22;5779;64.178;15.432;2023-01-25T14:27:04;4.30;99.90
11446;DHT22;5779;64.178;15.432;2023-01-25T14:29:51;4.40;99.90
11446;DHT22;5779;64.178;15.432;2023-01-25T14:32:40;4.40;99.90
11446;DHT22;5779;64.178;15.432;2023-01-25T14:35:36;4.40;99.90
11446;DHT22;5779;64.178;15.432;2023-01-25T14:38:27;4.40;99.90
11446;DHT22;5779;64.178;15.432;2023-01-25T14:41:18;4.50;99.90
11446;DHT22;5779;64.178;15.432;2023-01-25T14:44:10;4.50;99.90
11446;DHT22;5779;64.178;15.432;2023-01-25T14:47:20;4.40;99.90
11446;DHT22;5779;64.178;15.432;2023-01-25T14:50:35;4.30;99.90
11446;DHT22;5779;64.178;15.432;2023-01-25T14:53:24;4.20;99.90
11446;DHT22;5779;64.178;15.432;2023-01-25T14:56:33;4.10;99.90
11446;DHT22;5779;64.178;15.432;2023-01-25T14:59:25;4.10;99.90
11446;DHT22;5779;64.178;15.432;2023-01-25T15:02:21;4.20;99.90
11446;DHT22;5779;64.178;15.432;2023-01-25T15:05:17;4.20;99.90
11446;DHT22;5779;64.178;15.432;2023-01-25T15:08:25;4.30;99.90
11446;DHT22;5779;64.178;15.432;2023-01-25T15:11:32;4.20;99.90
11446;DHT22;5779;64.178;15.432;2023-01-25T15:14:29;4.20;99.90
11446;DHT22;5779;64.178;15.432;2023-01-25T15:17:37;4.10;99.90
11446;DHT22;5779;64.178;15.432;2023-01-25T15:20:36;4.20;99.90
11446;DHT22;5779;64.178;15.432;2023-01-25T15:23:24;4.30;99.90
11446;DHT22;5779;64.178;15.432;2023-01-25T15:26:13;4.30;99.90
11446;DHT22;5779;64.178;15.432;2023-01-25T15:29:11;4.20;99.90
11446;DHT22;5779;64.178;15.432;2023-01-25T15:31:58;4.40;99.90
11446;DHT22;5779;64.178;15.432;2023-01-25T15:34:45;4.40;99.90
11446;DHT22;5779;64.178;15.432;2023-01-25T15:37:33;4.40;99.90
11446;DHT22;5779;64.178;15.432;2023-01-25T15:40:19;4.30;99.90
11446;DHT22;5779;64.178;15.432;2023-01-25T15:43:09;4.30;99.90
11446;DHT22;5779;64.178;15.432;2023-01-25T15:45:59;4.30;99.90
11446;DHT22;5779;64.178;15.432;2023-01-25T15:48:47;4.20;99.90
11446;DHT22;5779;64.178;15.432;2023-01-25T15:51:34;4.20;99.90
11446;DHT22;5779;64.178;15.432;2023-01-25T15:54:21;4.20;99.90
11446;DHT22;5779;64.178;15.432;2023-01-25T15:57:19;4.30;99.90
11446;DHT22;5779;64.178;15.432;2023-01-25T16:00:16;4.30;99.90
11446;DHT22;5779;64.178;15.432;2023-01-25T16:03:11;4.20;99.90
11446;DHT22;5779;64.178;15.432;2023-01-25T16:06:06;4.20;99.90
11446;DHT22;5779;64.178;15.432;2023-01-25T16:09:25;4.10;99.90
11446;DHT22;5779;64.178;15.432;2023-01-25T16:12:20;4.10;99.90
11446;DHT22;5779;64.178;15.432;2023-01-25T16:15:13;4.00;99.90
11446;DHT22;5779;64.178;15.432;2023-01-25T16:18:00;4.00;99.90
11446;DHT22;5779;64.178;15.432;2023-01-25T16:20:49;4.00;99.90
11446;DHT22;5779;64.178;15.432;2023-01-25T16:23:36;3.90;99.90
11446;DHT22;5779;64.178;15.432;2023-01-25T16:26:24;3.80;99.90
11446;DHT22;5779;64.178;15.432;2023-01-25T16:29:11;4.10;99.90
11446;DHT22;5779;64.178;15.432;2023-01-25T16:31:59;3.90;99.90
11446;DHT22;5779;64.178;15.432;2023-01-25T16:34:46;3.90;99.90
11446;DHT22;5779;64.178;15.432;2023-01-25T16:37:34;3.90;99.90
11446;DHT22;5779;64.178;15.432;2023-01-25T16:40:23;3.80;99.90
11446;DHT22;5779;64.178;15.432;2023-01-25T16:43:10;3.80;99.90
11446;DHT22;5779;64.178;15.432;2023-01-25T16:45:58;3.70;99.90
11446;DHT22;5779;64.178;15.432;2023-01-25T16:48:46;3.70;99.90
11446;DHT22;5779;64.178;15.432;2023-01-25T16:51:33;3.70;99.90
11446;DHT22;5779;64.178;15.432;2023-01-25T16:54:23;3.60;99.90
11446;DHT22;5779;64.178;15.432;2023-01-25T16:57:11;3.60;99.90
11446;DHT22;5779;64.178;15.432;2023-01-25T16:59:58;3.70;99.90
11446;DHT22;5779;64.178;15.432;2023-01-25T17:02:45;3.80;99.90
11446;DHT22;5779;64.178;15.432;2023-01-25T17:05:32;3.80;99.90
11446;DHT22;5779;64.178;15.432;2023-01-25T17:08:24;3.90;99.90
11446;DHT22;5779;64.178;15.432;2023-01-25T17:11:13;4.00;99.90
11446;DHT22;5779;64.178;15.432;2023-01-25T17:14:00;4.00;99.90
11446;DHT22;5779;64.178;15.432;2023-01-25T17:16:47;4.10;99.90
11446;DHT22;5779;64.178;15.432;2023-01-25T17:19:35;4.00;99.90
11446;DHT22;5779;64.178;15.432;2023-01-25T17:22:22;4.00;99.90
11446;DHT22;5779;64.178;15.432;2023-01-25T17:25:09;3.90;99.90
11446;DHT22;5779;64.178;15.432;2023-01-25T17:27:57;3.90;99.90
11446;DHT22;5779;64.178;15.432;2023-01-25T17:30:44;3.90;99.90
11446;DHT22;5779;64.178;15.432;2023-01-25T17:33:31;3.80;99.90
11446;DHT22;5779;64.178;15.432;2023-01-25T17:36:18;3.90;99.90
11446;DHT22;5779;64.178;15.432;2023-01-25T17:39:06;3.70;99.90
11446;DHT22;5779;64.178;15.432;2023-01-25T17:41:53;3.70;99.90
11446;DHT22;5779;64.178;15.432;2023-01-25T17:44:41;3.70;99.90
11446;DHT22;5779;64.178;15.432;2023-01-25T17:47:28;3.70;99.90
11446;DHT22;5779;64.178;15.432;2023-01-25T17:50:17;3.70;99.90
11446;DHT22;5779;64.178;15.432;2023-01-25T17:53:04;3.60;99.90
11446;DHT22;5779;64.178;15.432;2023-01-25T17:55:51;3.60;99.90
11446;DHT22;5779;64.178;15.432;2023-01-25T17:58:40;3.50;99.90
11446;DHT22;5779;64.178;15.432;2023-01-25T18:01:29;3.50;99.90
11446;DHT22;5779;64.178;15.432;2023-01-25T18:04:16;3.30;99.90
11446;DHT22;5779;64.178;15.432;2023-01-25T18:07:04;3.40;99.90
11446;DHT22;5779;64.178;15.432;2023-01-25T18:09:51;3.40;99.90
11446;DHT22;5779;64.178;15.432;2023-01-25T18:12:38;3.40;99.90
11446;DHT22;5779;64.178;15.432;2023-01-25T18:15:25;3.40;99.90
11446;DHT22;5779;64.178;15.432;2023-01-25T18:18:15;3.40;99.90